createdAt,value
2023-02-14T00:01:22.430Z,30.00
2023-02-14T00:03:48.849Z,31.92
2023-02-14T00:06:15.410Z,30.45
2023-02-14T00:08:42.003Z,29.23
2023-02-14T00:11:08.400Z,30.98
2023-02-14T00:13:34.801Z,29.20
2023-02-14T00:16:01.215Z,28.90
2023-02-14T00:18:27.661Z,30.77
2023-02-14T00:20:54.054Z,31.70
2023-02-14T00:23:20.471Z,32.70
2023-02-14T00:25:46.853Z,33.80
2023-02-14T00:28:13.240Z,28.42
2023-02-14T00:30:39.650Z,31.50
2023-02-14T00:33:06.078Z,29.55
2023-02-14T00:35:32.458Z,30.88
2023-02-14T00:37:58.885Z,27.05
2023-02-14T00:40:25.260Z,29.33
2023-02-14T00:42:51.661Z,27.17
2023-02-14T00:45:18.074Z,27.50
2023-02-14T00:47:44.459Z,30.27
2023-02-14T00:50:11.038Z,28.80
2023-02-14T00:52:37.447Z,34.13
2023-02-14T00:55:03.964Z,23.05
2023-02-14T00:57:30.362Z,28.92
2023-02-14T00:59:56.752Z,30.13
2023-02-14T01:02:23.192Z,29.70
2023-02-14T01:04:49.613Z,30.02
2023-02-14T01:07:15.997Z,30.88
2023-02-14T01:09:42.418Z,30.33
2023-02-14T01:12:08.803Z,31.20
2023-02-14T01:14:35.224Z,26.45
2023-02-14T01:17:01.612Z,28.88
2023-02-14T01:19:28.026Z,29.63
2023-02-14T01:21:54.410Z,27.23
2023-02-14T01:24:21.384Z,28.60
2023-02-14T01:26:47.767Z,31.25
2023-02-14T01:29:14.203Z,30.70
2023-02-14T01:31:40.669Z,28.10
2023-02-14T01:34:07.173Z,30.85
2023-02-14T01:36:36.119Z,23.77
2023-02-14T01:39:04.829Z,30.15
2023-02-14T01:41:32.938Z,30.42
2023-02-14T01:44:00.153Z,26.55
2023-02-14T01:46:28.481Z,32.88
2023-02-14T01:48:57.375Z,30.17
2023-02-14T01:51:23.793Z,31.17
2023-02-14T01:53:50.181Z,28.05
2023-02-14T01:56:19.940Z,30.52
2023-02-14T02:01:13.328Z,29.55
2023-02-14T02:03:48.394Z,27.63
2023-02-14T02:06:19.432Z,32.88
2023-02-14T02:08:56.555Z,27.85
2023-02-14T02:11:22.971Z,27.40
2023-02-14T02:13:49.388Z,28.77
2023-02-14T02:16:58.086Z,30.65
2023-02-14T02:20:01.238Z,26.48
2023-02-14T02:22:30.434Z,27.00
2023-02-14T02:25:12.127Z,30.10
2023-02-14T02:27:47.528Z,27.85
2023-02-14T02:30:41.756Z,32.88
2023-02-14T02:33:08.127Z,25.30
2023-02-14T02:35:40.178Z,32.63
2023-02-14T02:38:06.462Z,31.38
2023-02-14T02:40:41.830Z,29.40
2023-02-14T02:43:15.439Z,27.92
2023-02-14T02:45:48.097Z,29.98
2023-02-14T02:48:16.556Z,30.75
2023-02-14T02:50:49.312Z,26.92
2023-02-14T02:53:21.013Z,31.38
2023-02-14T02:56:11.566Z,30.42
2023-02-14T02:58:40.894Z,29.27
2023-02-14T03:01:09.820Z,27.95
2023-02-14T03:03:36.260Z,31.20
2023-02-14T03:06:02.640Z,32.20
2023-02-14T03:08:29.052Z,28.60
2023-02-14T03:10:55.445Z,30.48
2023-02-14T03:13:33.837Z,32.70
2023-02-14T03:16:29.519Z,27.98
2023-02-14T03:19:15.263Z,28.35
2023-02-14T03:21:50.682Z,33.47
2023-02-14T03:24:38.472Z,31.38
2023-02-14T03:27:38.780Z,31.92
2023-02-14T03:30:08.400Z,29.98
2023-02-14T03:32:37.507Z,34.30
2023-02-14T03:35:34.013Z,32.47
2023-02-14T03:38:11.368Z,29.48
2023-02-14T03:41:08.265Z,30.40
2023-02-14T03:43:39.568Z,33.20
2023-02-14T03:46:11.670Z,31.23
2023-02-14T03:48:38.170Z,29.08
2023-02-14T03:51:04.807Z,33.58
2023-02-14T03:53:33.144Z,31.48
2023-02-14T03:55:59.519Z,31.00
2023-02-14T03:58:28.217Z,30.67
2023-02-14T04:00:58.867Z,30.35
2023-02-14T04:03:25.427Z,32.70
2023-02-14T04:05:51.864Z,30.80
2023-02-14T04:08:22.761Z,29.95
2023-02-14T04:10:50.589Z,32.20
2023-02-14T04:13:17.006Z,30.17
2023-02-14T04:15:43.501Z,28.38
2023-02-14T04:18:09.957Z,33.90
2023-02-14T04:20:36.344Z,33.08
2023-02-14T04:23:03.599Z,31.95
2023-02-14T04:25:30.137Z,35.15
2023-02-14T04:27:56.530Z,33.70
2023-02-14T04:30:23.057Z,35.05
2023-02-14T04:32:49.588Z,32.55
2023-02-14T04:35:15.989Z,32.67
2023-02-14T04:37:42.400Z,33.10
2023-02-14T04:40:09.269Z,30.98
2023-02-14T04:42:35.657Z,35.65
2023-02-14T04:45:04.121Z,32.60
2023-02-14T04:47:30.752Z,31.85
2023-02-14T04:49:57.259Z,30.23
2023-02-14T04:52:23.631Z,30.70
2023-02-14T04:54:50.052Z,34.15
2023-02-14T04:57:16.427Z,33.67
2023-02-14T04:59:42.901Z,32.05
2023-02-14T05:02:09.345Z,29.50
2023-02-14T05:04:35.799Z,29.75
2023-02-14T05:07:02.193Z,32.58
2023-02-14T05:09:28.664Z,35.05
2023-02-14T05:11:55.074Z,33.10
2023-02-14T05:14:21.505Z,29.70
2023-02-14T05:16:48.035Z,30.83
2023-02-14T05:19:14.508Z,38.47
2023-02-14T05:21:40.915Z,31.05
2023-02-14T05:24:07.388Z,26.90
2023-02-14T05:26:33.787Z,31.27
2023-02-14T05:29:00.178Z,33.75
2023-02-14T05:31:26.709Z,31.05
2023-02-14T05:33:53.172Z,30.13
2023-02-14T05:36:19.598Z,32.95
2023-02-14T05:38:45.987Z,33.15
2023-02-14T05:41:12.400Z,31.15
2023-02-14T05:43:38.803Z,34.75
2023-02-14T05:46:05.305Z,32.55
2023-02-14T05:48:32.116Z,32.28
2023-02-14T05:51:02.541Z,32.10
2023-02-14T05:53:28.925Z,29.55
2023-02-14T05:55:55.321Z,32.00
2023-02-14T05:58:21.701Z,32.05
2023-02-14T06:00:48.094Z,31.65
2023-02-14T06:03:14.475Z,31.80
2023-02-14T06:05:40.881Z,27.77
2023-02-14T06:08:07.265Z,30.92
2023-02-14T06:10:33.688Z,32.55
2023-02-14T06:13:00.139Z,37.83
2023-02-14T06:15:26.575Z,32.13
2023-02-14T06:17:53.975Z,30.98
2023-02-14T06:20:20.885Z,30.88
2023-02-14T06:22:47.337Z,32.00
2023-02-14T06:25:13.817Z,32.20
2023-02-14T06:27:40.195Z,35.13
2023-02-14T06:30:07.279Z,30.00
2023-02-14T06:32:33.696Z,31.08
2023-02-14T06:35:00.288Z,33.13
2023-02-14T06:37:26.697Z,30.58
2023-02-14T06:39:53.173Z,29.85
2023-02-14T06:42:19.577Z,32.75
2023-02-14T06:44:46.014Z,29.33
2023-02-14T06:47:12.445Z,36.75
2023-02-14T06:49:38.842Z,33.00
2023-02-14T06:52:05.616Z,33.47
2023-02-14T06:54:32.063Z,32.90
2023-02-14T06:56:58.607Z,31.55
2023-02-14T06:59:25.004Z,33.72
2023-02-14T07:01:51.476Z,30.75
2023-02-14T07:04:17.923Z,32.13
2023-02-14T07:06:47.464Z,28.90
2023-02-14T07:09:13.841Z,33.20
2023-02-14T07:11:40.259Z,28.20
2023-02-14T07:14:06.638Z,31.98
2023-02-14T07:16:33.033Z,31.48
2023-02-14T07:18:59.452Z,27.02
2023-02-14T07:21:25.841Z,28.10
2023-02-14T07:23:52.261Z,27.27
2023-02-14T07:26:18.670Z,27.08
2023-02-14T07:28:45.708Z,27.38
2023-02-14T07:31:12.468Z,25.88
2023-02-14T07:33:39.005Z,26.42
2023-02-14T07:36:08.882Z,27.45
2023-02-14T07:38:35.549Z,24.83
2023-02-14T07:41:02.150Z,24.23
2023-02-14T07:43:28.721Z,26.20
2023-02-14T07:45:55.156Z,27.15
2023-02-14T07:48:21.677Z,25.02
2023-02-14T07:50:48.379Z,25.20
2023-02-14T07:53:14.783Z,27.50
2023-02-14T07:55:41.168Z,24.33
2023-02-14T07:58:07.579Z,27.88
2023-02-14T08:00:33.970Z,26.63
2023-02-14T08:03:00.408Z,25.25
2023-02-14T08:05:26.882Z,20.77
2023-02-14T08:07:53.354Z,23.13
2023-02-14T08:10:20.931Z,24.20
2023-02-14T08:12:47.364Z,25.33
2023-02-14T08:15:13.751Z,23.63
2023-02-14T08:17:40.145Z,21.58
2023-02-14T08:20:07.179Z,22.23
2023-02-14T08:22:33.743Z,27.15
2023-02-14T08:25:00.155Z,24.73
2023-02-14T08:27:26.561Z,21.63
2023-02-14T08:29:53.006Z,23.27
2023-02-14T08:32:19.486Z,22.00
2023-02-14T08:34:46.329Z,22.67
2023-02-14T08:37:12.970Z,23.60
2023-02-14T08:39:39.596Z,22.08
2023-02-14T08:42:06.144Z,21.73
2023-02-14T08:44:32.544Z,20.08
2023-02-14T08:46:58.971Z,22.63
2023-02-14T08:49:25.588Z,20.38
2023-02-14T08:51:51.973Z,17.02
2023-02-14T08:54:18.417Z,21.45
2023-02-14T08:56:44.831Z,24.65
2023-02-14T08:59:11.269Z,17.92
2023-02-14T09:01:37.688Z,19.45
2023-02-14T09:04:04.327Z,20.20
2023-02-14T09:06:30.820Z,21.52
2023-02-14T09:08:57.240Z,19.95
2023-02-14T09:11:24.653Z,19.77
2023-02-14T09:13:52.169Z,18.67
2023-02-14T09:16:19.013Z,19.83
2023-02-14T09:18:46.309Z,18.98
2023-02-14T09:21:19.519Z,21.27
2023-02-14T09:23:45.956Z,18.33
2023-02-14T09:26:13.588Z,20.92
2023-02-14T09:28:40.009Z,17.08
2023-02-14T09:31:10.901Z,17.27
2023-02-14T09:33:37.620Z,21.50
2023-02-14T09:36:04.278Z,17.98
2023-02-14T09:38:30.681Z,20.42
2023-02-14T09:40:57.272Z,23.02
2023-02-14T09:43:30.888Z,21.77
2023-02-14T09:45:58.067Z,19.95
2023-02-14T09:48:33.004Z,20.75
2023-02-14T09:51:05.116Z,22.83
2023-02-14T09:53:33.492Z,21.67
2023-02-14T09:55:59.840Z,25.33
2023-02-14T09:58:31.995Z,20.67
2023-02-14T10:01:13.594Z,22.30
2023-02-14T10:06:14.168Z,21.90
2023-02-14T10:09:24.972Z,20.88
2023-02-14T10:11:51.401Z,20.02
2023-02-14T10:14:19.193Z,23.85
2023-02-14T10:17:22.206Z,21.02
2023-02-14T10:20:00.293Z,23.83
2023-02-14T10:22:38.573Z,24.08
2023-02-14T10:25:17.861Z,22.42
2023-02-14T10:27:47.341Z,21.02
2023-02-14T10:30:21.578Z,20.92
2023-02-14T10:33:17.602Z,23.60
2023-02-14T10:35:47.871Z,22.13
2023-02-14T10:38:40.192Z,23.42
2023-02-14T10:41:30.338Z,20.02
2023-02-14T10:44:31.524Z,22.23
2023-02-14T10:47:22.757Z,21.75
2023-02-14T10:49:58.049Z,20.15
2023-02-14T10:52:40.775Z,23.58
2023-02-14T10:55:32.931Z,21.65
2023-02-14T10:57:59.811Z,21.95
2023-02-14T11:00:28.452Z,22.77
2023-02-14T11:02:58.793Z,22.17
2023-02-14T11:05:36.229Z,24.23
2023-02-14T11:08:29.890Z,25.35
2023-02-14T11:11:01.332Z,24.70
2023-02-14T11:13:35.105Z,29.10
2023-02-14T11:16:03.832Z,21.50
2023-02-14T11:18:30.490Z,22.83
2023-02-14T11:21:01.251Z,22.13
2023-02-14T11:23:27.827Z,22.70
2023-02-14T11:25:54.746Z,23.38
2023-02-14T11:28:21.180Z,24.80
2023-02-14T11:30:48.255Z,21.25
2023-02-14T11:33:48.493Z,22.70
2023-02-14T11:36:14.937Z,23.95
2023-02-14T11:38:41.390Z,23.65
2023-02-14T11:41:09.626Z,23.90
2023-02-14T11:43:39.968Z,24.05
2023-02-14T11:46:13.431Z,20.92
2023-02-14T11:48:39.873Z,20.60
2023-02-14T11:51:07.958Z,21.48
2023-02-14T11:53:43.165Z,26.70
2023-02-14T11:56:09.562Z,20.70
2023-02-14T11:58:38.533Z,21.30
2023-02-14T12:01:05.045Z,22.60
2023-02-14T12:03:45.234Z,22.63
2023-02-14T12:06:12.589Z,22.63
2023-02-14T12:08:39.020Z,24.65
2023-02-14T12:11:26.294Z,25.63
2023-02-14T12:13:56.836Z,22.27
2023-02-14T12:16:42.725Z,24.08
2023-02-14T12:19:20.480Z,25.52
2023-02-14T12:21:55.970Z,21.40
2023-02-14T12:24:48.976Z,21.55
2023-02-14T12:27:19.407Z,24.05
2023-02-14T12:29:48.951Z,22.83
2023-02-14T12:32:28.780Z,22.25
2023-02-14T12:35:12.611Z,20.80
2023-02-14T12:38:09.569Z,24.63
2023-02-14T12:40:51.172Z,25.77
2023-02-14T12:43:44.912Z,24.92
2023-02-14T12:46:33.287Z,24.35
2023-02-14T12:49:33.608Z,22.83
2023-02-14T12:52:15.040Z,21.52
2023-02-14T12:57:24.428Z,21.95
2023-02-14T13:00:06.526Z,24.27
2023-02-14T13:02:45.466Z,22.70
2023-02-14T13:05:47.011Z,20.15
2023-02-14T13:08:31.548Z,25.77
2023-02-14T13:11:32.531Z,20.20
2023-02-14T13:14:22.065Z,22.35
2023-02-14T13:16:56.113Z,20.73
2023-02-14T13:19:22.378Z,20.33
2023-02-14T13:21:48.936Z,19.88
2023-02-14T13:24:27.395Z,26.20
2023-02-14T13:26:56.811Z,21.73
2023-02-14T13:29:24.049Z,21.98
2023-02-14T13:31:51.377Z,20.02
2023-02-14T13:34:37.806Z,19.40
2023-02-14T13:37:06.575Z,20.67
2023-02-14T13:39:38.336Z,19.98
2023-02-14T13:42:06.188Z,19.02
2023-02-14T13:44:38.802Z,20.00
2023-02-14T13:47:06.530Z,19.27
2023-02-14T13:49:33.131Z,18.60
2023-02-14T13:52:01.540Z,20.13
2023-02-14T13:54:37.784Z,21.38
2023-02-14T13:57:33.731Z,19.45
2023-02-14T14:00:18.555Z,18.90
2023-02-14T14:02:48.551Z,23.40
2023-02-14T14:05:30.278Z,20.00
2023-02-14T14:08:21.659Z,22.25
2023-02-14T14:10:48.910Z,18.15
2023-02-14T14:13:40.219Z,18.92
2023-02-14T14:16:24.994Z,19.25
2023-02-14T14:18:57.370Z,18.80
2023-02-14T14:21:23.672Z,18.27
2023-02-14T14:24:07.375Z,20.73
2023-02-14T14:26:35.860Z,16.65
2023-02-14T14:29:09.055Z,19.98
2023-02-14T14:31:35.700Z,18.60
2023-02-14T14:34:02.187Z,19.45
2023-02-14T14:36:28.665Z,17.55
2023-02-14T14:38:55.100Z,17.38
2023-02-14T14:41:30.517Z,18.95
2023-02-14T14:43:58.372Z,20.55
2023-02-14T14:46:24.789Z,18.25
2023-02-14T14:48:51.873Z,19.05
2023-02-14T14:51:30.832Z,15.77
2023-02-14T14:54:16.277Z,18.08
2023-02-14T14:56:59.470Z,17.58
2023-02-14T14:59:31.651Z,18.90
2023-02-14T15:01:58.165Z,19.45
2023-02-14T15:04:32.320Z,18.35
2023-02-14T15:07:17.710Z,20.27
2023-02-14T15:09:44.751Z,20.75
2023-02-14T15:12:11.226Z,19.50
2023-02-14T15:14:40.044Z,16.65
2023-02-14T15:17:12.833Z,19.38
2023-02-14T15:19:41.855Z,16.77
2023-02-14T15:22:23.976Z,16.40
2023-02-14T15:24:50.477Z,19.60
2023-02-14T15:27:18.511Z,17.05
2023-02-14T15:29:58.252Z,18.08
2023-02-14T15:32:30.314Z,16.80
2023-02-14T15:34:56.745Z,14.65
2023-02-14T15:37:23.128Z,20.50
2023-02-14T15:39:51.298Z,18.83
2023-02-14T15:42:23.379Z,19.95
2023-02-14T15:44:49.807Z,16.85
2023-02-14T15:47:16.198Z,15.07
2023-02-14T15:49:43.407Z,19.13
2023-02-14T15:52:14.861Z,20.20
2023-02-14T15:54:49.547Z,17.63
2023-02-14T15:57:26.052Z,15.60
2023-02-14T15:59:53.601Z,18.52
2023-02-14T16:02:40.226Z,20.70
2023-02-14T16:05:27.662Z,18.15
2023-02-14T16:10:26.988Z,16.55
2023-02-14T16:12:56.516Z,20.23
2023-02-14T16:15:25.712Z,20.75
2023-02-14T16:17:52.200Z,17.15
2023-02-14T16:20:39.708Z,18.92
2023-02-14T16:25:45.237Z,17.58
2023-02-14T16:28:11.633Z,18.90
2023-02-14T16:30:38.173Z,23.13
2023-02-14T16:33:06.463Z,19.42
2023-02-14T16:35:32.860Z,20.15
2023-02-14T16:37:59.280Z,18.75
2023-02-14T16:40:26.466Z,21.25
2023-02-14T16:42:52.930Z,21.75
2023-02-14T16:45:19.473Z,19.52
2023-02-14T16:47:48.923Z,18.23
2023-02-14T16:50:15.705Z,19.50
2023-02-14T16:52:42.341Z,19.73
2023-02-14T16:55:16.371Z,19.48
2023-02-14T16:57:43.558Z,18.88
2023-02-14T17:00:13.129Z,18.55
2023-02-14T17:02:39.617Z,18.92
2023-02-14T17:05:06.533Z,20.25
2023-02-14T17:07:32.940Z,17.13
2023-02-14T17:10:06.131Z,22.23
2023-02-14T17:12:35.191Z,18.85
2023-02-14T17:15:03.655Z,17.80
2023-02-14T17:17:30.481Z,19.90
2023-02-14T17:19:57.564Z,20.20
2023-02-14T17:22:23.968Z,21.33
2023-02-14T17:24:50.552Z,17.88
2023-02-14T17:27:17.000Z,20.25
2023-02-14T17:29:43.506Z,18.50
2023-02-14T17:32:13.376Z,21.30
2023-02-14T17:34:40.119Z,20.02
2023-02-14T17:37:06.647Z,21.08
2023-02-14T17:39:33.067Z,20.88
2023-02-14T17:41:59.460Z,19.33
2023-02-14T17:44:25.910Z,19.35
2023-02-14T17:46:52.299Z,22.13
2023-02-14T17:49:18.785Z,21.25
2023-02-14T17:51:45.177Z,19.05
2023-02-14T17:54:11.657Z,20.92
2023-02-14T17:56:38.136Z,19.10
2023-02-14T17:59:04.532Z,22.25
2023-02-14T18:01:31.043Z,20.23
2023-02-14T18:03:57.473Z,21.75
2023-02-14T18:06:23.889Z,19.58
2023-02-14T18:08:50.431Z,21.55
2023-02-14T18:11:17.193Z,19.45
2023-02-14T18:13:43.638Z,20.92
2023-02-14T18:16:11.926Z,21.25
2023-02-14T18:18:38.505Z,20.58
2023-02-14T18:21:05.748Z,21.80
2023-02-14T18:23:32.239Z,19.92
2023-02-14T18:26:00.285Z,21.25
2023-02-14T18:28:26.904Z,17.65
2023-02-14T18:30:53.685Z,18.65
2023-02-14T18:33:20.496Z,18.15
2023-02-14T18:35:47.083Z,20.80
2023-02-14T18:38:13.549Z,17.67
2023-02-14T18:40:40.106Z,21.30
2023-02-14T18:43:06.809Z,20.90
2023-02-14T18:45:36.822Z,24.13
2023-02-14T18:48:03.674Z,21.63
2023-02-14T18:50:30.440Z,20.83
2023-02-14T18:52:56.988Z,25.15
2023-02-14T18:55:23.570Z,22.33
2023-02-14T18:57:49.957Z,22.25
2023-02-14T19:00:18.374Z,22.65
2023-02-14T19:02:44.777Z,18.63
2023-02-14T19:05:11.213Z,20.77
2023-02-14T19:07:37.615Z,22.40
2023-02-14T19:10:04.788Z,23.75
2023-02-14T19:12:32.102Z,23.00
2023-02-14T19:14:58.841Z,22.58
2023-02-14T19:17:25.250Z,23.33
2023-02-14T19:19:52.092Z,22.83
2023-02-14T19:22:18.862Z,25.58
2023-02-14T19:24:45.390Z,24.92
2023-02-14T19:27:11.768Z,21.50
2023-02-14T19:29:38.186Z,22.58
2023-02-14T19:32:04.894Z,23.35
2023-02-14T19:34:31.401Z,18.98
2023-02-14T19:36:58.717Z,22.55
2023-02-14T19:39:25.194Z,21.20
2023-02-14T19:41:51.621Z,19.83
2023-02-14T19:44:19.458Z,23.58
2023-02-14T19:46:46.195Z,24.10
2023-02-14T19:49:16.949Z,20.05
2023-02-14T19:51:43.667Z,22.83
2023-02-14T19:54:11.251Z,23.05
2023-02-14T19:56:41.968Z,26.35
2023-02-14T19:59:08.454Z,22.35
2023-02-14T20:01:36.626Z,20.73
2023-02-14T20:04:04.108Z,21.17
2023-02-14T20:06:30.547Z,22.65
2023-02-14T20:08:57.169Z,22.65
2023-02-14T20:11:33.675Z,22.90
2023-02-14T20:14:00.188Z,25.27
2023-02-14T20:16:27.340Z,22.58
2023-02-14T20:18:53.795Z,24.67
2023-02-14T20:21:21.852Z,20.05
2023-02-14T20:23:49.508Z,23.50
2023-02-14T20:26:17.807Z,26.38
2023-02-14T20:28:44.410Z,26.58
2023-02-14T20:31:12.147Z,23.75
2023-02-14T20:33:39.032Z,23.88
2023-02-14T20:36:05.786Z,24.70
2023-02-14T20:38:32.895Z,24.77
2023-02-14T20:41:04.055Z,22.77
2023-02-14T20:43:33.248Z,23.30
2023-02-14T20:46:00.319Z,25.17
2023-02-14T20:48:27.802Z,26.23
2023-02-14T20:50:54.253Z,24.90
2023-02-14T20:53:21.039Z,22.20
2023-02-14T20:55:55.480Z,24.42
2023-02-14T20:58:21.901Z,24.08
2023-02-14T21:00:48.285Z,21.67
2023-02-14T21:03:14.727Z,24.88
2023-02-14T21:05:41.122Z,22.52
2023-02-14T21:08:09.610Z,23.55
2023-02-14T21:10:37.229Z,22.50
2023-02-14T21:13:03.643Z,24.98
2023-02-14T21:15:30.128Z,24.77
2023-02-14T21:17:56.587Z,21.55
2023-02-14T21:20:22.965Z,21.38
2023-02-14T21:22:49.380Z,24.20
2023-02-14T21:25:15.805Z,27.80
2023-02-14T21:27:42.218Z,22.73
2023-02-14T21:30:09.061Z,24.55
2023-02-14T21:32:35.487Z,23.88
2023-02-14T21:35:02.050Z,22.92
2023-02-14T21:37:28.452Z,22.38
2023-02-14T21:39:55.484Z,23.95
2023-02-14T21:42:23.218Z,24.95
2023-02-14T21:44:49.634Z,24.45
2023-02-14T21:47:16.020Z,26.60
2023-02-14T21:49:42.443Z,23.33
2023-02-14T21:52:08.847Z,26.33
2023-02-14T21:54:35.540Z,25.42
2023-02-14T21:57:03.074Z,23.50
2023-02-14T21:59:30.059Z,25.67
2023-02-14T22:01:56.692Z,24.85
2023-02-14T22:04:23.149Z,24.60
2023-02-14T22:06:49.593Z,25.80
2023-02-14T22:09:15.982Z,26.00
2023-02-14T22:11:42.404Z,23.85
2023-02-14T22:14:08.792Z,25.17
2023-02-14T22:16:35.294Z,25.75
2023-02-14T22:19:01.682Z,24.20
2023-02-14T22:21:28.157Z,25.52
2023-02-14T22:23:55.887Z,26.42
2023-02-14T22:26:26.629Z,26.75
2023-02-14T22:28:55.384Z,25.75
2023-02-14T22:31:21.839Z,27.73
2023-02-14T22:33:48.461Z,30.27
2023-02-14T22:36:14.918Z,32.35
2023-02-14T22:38:41.342Z,27.92
2023-02-14T22:41:19.219Z,31.60
2023-02-14T22:43:45.754Z,31.55
2023-02-14T22:46:13.873Z,27.70
2023-02-14T22:48:40.474Z,34.20
2023-02-14T22:51:25.424Z,32.17
2023-02-14T22:53:55.981Z,34.50
2023-02-14T22:56:23.701Z,31.88
2023-02-14T22:58:57.378Z,30.98
2023-02-14T23:01:24.183Z,34.00
2023-02-14T23:03:58.764Z,33.22
2023-02-14T23:06:26.151Z,35.40
2023-02-14T23:08:52.788Z,43.33
2023-02-14T23:11:21.008Z,36.92
2023-02-14T23:13:47.423Z,35.55
2023-02-14T23:16:13.842Z,39.92
2023-02-14T23:18:40.277Z,36.67
2023-02-14T23:21:12.862Z,32.78
2023-02-14T23:23:39.282Z,34.92
2023-02-14T23:26:05.674Z,35.22
2023-02-14T23:28:32.076Z,30.05
2023-02-14T23:31:01.843Z,32.35
2023-02-14T23:33:28.238Z,34.22
2023-02-14T23:35:54.647Z,30.92
2023-02-14T23:38:21.043Z,30.20
2023-02-14T23:40:47.463Z,33.22
2023-02-14T23:43:13.845Z,28.33
2023-02-14T23:45:40.298Z,30.23
2023-02-14T23:48:06.693Z,31.65
2023-02-14T23:50:33.086Z,30.88
2023-02-14T23:52:59.501Z,30.60
2023-02-14T23:55:25.931Z,31.90
2023-02-14T23:57:52.312Z,27.90
